Time,TemperatureF,DewpointF,PressureIn,WindDirection,WindDirectionDegrees,WindSpeedMPH,WindSpeedGustMPH,Humidity,HourlyPrecipIn,Conditions,Clouds,dailyrainin,SoftwareType,DateUTC
2013-01-14 00:02:00,29.0,14.0,30.30,SW,229,0.0,0.0,52,0.00,,,0.00,,2013-01-14 08:02:00,
2013-01-14 00:22:00,28.0,13.0,30.30,SW,229,0.0,0.0,52,0.00,,,0.00,,2013-01-14 08:22:00,
2013-01-14 00:32:00,28.0,13.0,30.30,SW,229,0.0,0.0,52,0.00,,,0.00,,2013-01-14 08:32:00,
2013-01-14 00:53:00,28.0,13.0,30.30,SW,229,0.0,3.0,52,0.00,,,0.00,,2013-01-14 08:53:00,
2013-01-14 01:02:00,28.0,13.0,30.30,SW,229,0.0,0.0,52,0.00,,,0.00,,2013-01-14 09:02:00,
2013-01-14 01:22:00,28.0,12.0,30.30,SW,229,0.0,0.0,51,0.00,,,0.00,,2013-01-14 09:22:00,
2013-01-14 01:33:00,27.0,11.0,30.33,SW,229,0.0,0.0,51,0.00,,,0.00,,2013-01-14 09:33:00,
2013-01-14 01:52:00,28.0,12.0,30.33,SW,218,0.0,4.0,51,0.00,,,0.00,,2013-01-14 09:52:00,
2013-01-14 02:02:00,28.0,12.0,30.33,SW,218,0.0,3.0,51,0.00,,,0.00,,2013-01-14 10:02:00,
2013-01-14 02:22:00,28.0,12.0,30.33,SW,218,0.0,0.0,51,0.00,,,0.00,,2013-01-14 10:22:00,
2013-01-14 02:32:00,28.0,12.0,30.33,SW,218,0.0,3.0,51,0.00,,,0.00,,2013-01-14 10:32:00,
2013-01-14 02:52:00,28.0,12.0,30.36,SW,218,2.0,3.0,50,0.00,,,0.00,,2013-01-14 10:52:00,
2013-01-14 03:01:00,28.0,12.0,30.36,SW,218,0.0,4.0,50,0.00,,,0.00,,2013-01-14 11:01:00,
2013-01-14 03:11:00,28.0,12.0,30.36,SW,218,0.0,4.0,50,0.00,,,0.00,,2013-01-14 11:11:00,
2013-01-14 03:22:00,28.0,12.0,30.36,SW,218,0.0,4.0,50,0.00,,,0.00,,2013-01-14 11:22:00,
2013-01-14 03:32:00,27.0,11.0,30.36,SW,218,0.0,4.0,50,0.00,,,0.00,,2013-01-14 11:32:00,
2013-01-14 03:53:00,27.0,11.0,30.36,SW,218,0.0,3.0,50,0.00,,,0.00,,2013-01-14 11:53:00,
2013-01-14 04:02:00,27.0,11.0,30.36,SW,218,0.0,4.0,51,0.00,,,0.00,,2013-01-14 12:02:00,
2013-01-14 04:12:00,27.0,11.0,30.36,SW,218,0.0,4.0,51,0.00,,,0.00,,2013-01-14 12:12:00,
2013-01-14 04:22:00,27.0,11.0,30.36,SW,218,0.0,3.0,50,0.00,,,0.00,,2013-01-14 12:22:00,
2013-01-14 04:32:00,28.0,12.0,30.36,SW,218,0.0,4.0,50,0.00,,,0.00,,2013-01-14 12:32:00,
2013-01-14 04:42:00,28.0,12.0,30.36,SW,218,0.0,4.0,50,0.00,,,0.00,,2013-01-14 12:42:00,
2013-01-14 04:53:00,28.0,11.0,30.36,SW,223,0.0,5.0,49,0.00,,,0.00,,2013-01-14 12:53:00,
2013-01-14 05:02:00,28.0,11.0,30.36,SW,223,0.0,4.0,49,0.00,,,0.00,,2013-01-14 13:02:00,
2013-01-14 05:22:00,27.0,10.0,30.36,SW,223,0.0,3.0,49,0.00,,,0.00,,2013-01-14 13:22:00,
2013-01-14 05:33:00,27.0,10.0,30.36,SW,223,0.0,4.0,49,0.00,,,0.00,,2013-01-14 13:33:00,
2013-01-14 05:53:00,27.0,10.0,30.39,SW,223,0.0,4.0,49,0.00,,,0.00,,2013-01-14 13:53:00,
2013-01-14 06:02:00,27.0,11.0,30.39,SW,223,0.0,4.0,50,0.00,,,0.00,,2013-01-14 14:02:00,
2013-01-14 06:22:00,27.0,11.0,30.39,SW,221,0.0,4.0,50,0.00,,,0.00,,2013-01-14 14:22:00,
2013-01-14 06:32:00,27.0,11.0,30.39,SW,221,0.0,4.0,50,0.00,,,0.00,,2013-01-14 14:32:00,
2013-01-14 06:53:00,27.0,11.0,30.42,SW,221,0.0,3.0,51,0.00,,,0.00,,2013-01-14 14:53:00,
2013-01-14 07:02:00,27.0,11.0,30.42,SW,221,0.0,3.0,51,0.00,,,0.00,,2013-01-14 15:02:00,
2013-01-14 07:23:00,28.0,11.0,30.42,SW,221,0.0,4.0,49,0.00,,,0.00,,2013-01-14 15:23:00,
2013-01-14 07:33:00,28.0,11.0,30.42,SW,221,0.0,4.0,48,0.00,,,0.00,,2013-01-14 15:33:00,
2013-01-14 07:53:00,28.0,11.0,30.45,SW,221,0.0,4.0,48,0.00,,,0.00,,2013-01-14 15:53:00,
2013-01-14 08:02:00,29.0,11.0,30.45,SW,221,0.0,3.0,46,0.00,,,0.00,,2013-01-14 16:02:00,
2013-01-14 08:22:00,29.0,10.0,30.45,SW,221,3.0,4.0,45,0.00,,,0.00,,2013-01-14 16:22:00,
2013-01-14 08:32:00,30.0,10.0,30.45,North,5,3.0,4.0,43,0.00,,,0.00,,2013-01-14 16:32:00,
2013-01-14 08:42:00,30.0,10.0,30.45,North,5,3.0,4.0,43,0.00,,,0.00,,2013-01-14 16:42:00,
2013-01-14 08:53:00,33.0,10.0,30.44,NW,314,4.0,5.0,38,0.00,,,0.00,,2013-01-14 16:53:00,
2013-01-14 09:02:00,36.0,9.0,30.44,North,2,4.0,7.0,32,0.00,,,0.00,,2013-01-14 17:02:00,
2013-01-14 09:11:00,36.0,9.0,30.44,North,2,4.0,7.0,32,0.00,,,0.00,,2013-01-14 17:11:00,
2013-01-14 09:22:00,38.0,9.0,30.44,NNE,15,2.0,8.0,29,0.00,,,0.00,,2013-01-14 17:22:00,
2013-01-14 09:33:00,39.0,9.0,30.47,NW,325,4.0,12.0,28,0.00,,,0.00,,2013-01-14 17:33:00,
2013-01-14 09:42:00,39.0,9.0,30.47,NW,325,4.0,12.0,28,0.00,,,0.00,,2013-01-14 17:42:00,
2013-01-14 09:53:00,40.0,8.0,30.47,NNW,342,3.0,11.0,26,0.00,,,0.00,,2013-01-14 17:53:00,
2013-01-14 10:02:00,42.0,7.0,30.47,North,357,5.0,13.0,23,0.00,,,0.00,,2013-01-14 18:02:00,
2013-01-14 10:12:00,42.0,7.0,30.47,North,357,5.0,13.0,23,0.00,,,0.00,,2013-01-14 18:12:00,
2013-01-14 10:22:00,43.0,5.0,30.47,NNW,335,3.0,13.0,20,0.00,,,0.00,,2013-01-14 18:22:00,
2013-01-14 10:33:00,45.0,3.0,30.47,NE,43,3.0,11.0,17,0.00,,,0.00,,2013-01-14 18:33:00,
2013-01-14 10:52:00,46.0,4.0,30.47,North,353,4.0,11.0,17,0.00,,,0.00,,2013-01-14 18:52:00,
2013-01-14 11:02:00,46.0,4.0,30.47,NNE,20,5.0,12.0,17,0.00,,,0.00,,2013-01-14 19:02:00,
2013-01-14 11:22:00,45.0,3.0,30.47,NE,39,7.0,11.0,17,0.00,,,0.00,,2013-01-14 19:22:00,
2013-01-14 11:32:00,44.0,3.0,30.47,NE,44,4.0,10.0,18,0.00,,,0.00,,2013-01-14 19:32:00,
2013-01-14 11:53:00,45.0,3.0,30.47,ENE,58,3.0,8.0,17,0.00,,,0.00,,2013-01-14 19:53:00,
2013-01-14 12:02:00,46.0,4.0,30.47,NNE,28,4.0,10.0,17,0.00,,,0.00,,2013-01-14 20:02:00,
2013-01-14 12:22:00,48.0,1.0,30.44,NE,41,5.0,8.0,14,0.00,,,0.00,,2013-01-14 20:22:00,
2013-01-14 12:32:00,49.0,2.0,30.44,North,357,4.0,8.0,14,0.00,,,0.00,,2013-01-14 20:32:00,
2013-01-14 12:53:00,49.0,2.0,30.41,North,353,3.0,11.0,14,0.00,,,0.00,,2013-01-14 20:53:00,
2013-01-14 13:02:00,49.0,2.0,30.41,NE,38,4.0,11.0,14,0.00,,,0.00,,2013-01-14 21:02:00,
2013-01-14 13:22:00,51.0,4.0,30.44,NW,309,5.0,15.0,14,0.00,,,0.00,,2013-01-14 21:22:00,
2013-01-14 13:32:00,52.0,3.0,30.40,NW,317,4.0,10.0,13,0.00,,,0.00,,2013-01-14 21:32:00,
2013-01-14 13:53:00,52.0,3.0,30.40,NNW,343,4.0,13.0,13,0.00,,,0.00,,2013-01-14 21:53:00,
2013-01-14 14:02:00,51.0,4.0,30.41,NNE,21,6.0,8.0,14,0.00,,,0.00,,2013-01-14 22:02:00,
2013-01-14 14:22:00,50.0,3.0,30.41,NNE,23,6.0,8.0,14,0.00,,,0.00,,2013-01-14 22:22:00,
2013-01-14 14:32:00,49.0,2.0,30.41,North,353,4.0,11.0,14,0.00,,,0.00,,2013-01-14 22:32:00,
2013-01-14 14:52:00,50.0,3.0,30.41,NNE,19,4.0,8.0,14,0.00,,,0.00,,2013-01-14 22:52:00,
2013-01-14 15:02:00,49.0,2.0,30.41,NW,321,3.0,9.0,14,0.00,,,0.00,,2013-01-14 23:02:00,
2013-01-14 15:22:00,49.0,2.0,30.41,NNE,21,5.0,10.0,14,0.00,,,0.00,,2013-01-14 23:22:00,
2013-01-14 15:32:00,49.0,2.0,30.44,NE,47,5.0,9.0,14,0.00,,,0.00,,2013-01-14 23:32:00,
2013-01-14 15:53:00,49.0,2.0,30.44,NNE,32,6.0,9.0,14,0.00,,,0.00,,2013-01-14 23:53:00,
2013-01-14 16:02:00,49.0,2.0,30.44,North,0,4.0,9.0,14,0.00,,,0.00,,2013-01-15 00:02:00,
2013-01-14 16:22:00,49.0,2.0,30.44,North,353,3.0,8.0,14,0.00,,,0.00,,2013-01-15 00:22:00,
2013-01-14 16:32:00,48.0,1.0,30.44,NNW,336,0.0,7.0,14,0.00,,,0.00,,2013-01-15 00:32:00,
2013-01-14 16:52:00,48.0,1.0,30.44,WSW,249,0.0,6.0,14,0.00,,,0.00,,2013-01-15 00:52:00,
2013-01-14 17:01:00,47.0,0.0,30.41,West,264,0.0,5.0,14,0.00,,,0.00,,2013-01-15 01:01:00,
2013-01-14 17:12:00,46.0,1.0,30.41,SW,220,0.0,3.0,15,0.00,,,0.00,,2013-01-15 01:12:00,
2013-01-14 17:22:00,46.0,1.0,30.41,SW,220,0.0,3.0,15,0.00,,,0.00,,2013-01-15 01:22:00,
2013-01-14 17:32:00,44.0,3.0,30.41,SW,220,0.0,0.0,18,0.00,,,0.00,,2013-01-15 01:32:00,
2013-01-14 17:52:00,42.0,7.0,30.44,SW,220,0.0,0.0,23,0.00,,,0.00,,2013-01-15 01:52:00,
2013-01-14 18:01:00,41.0,11.0,30.41,SW,220,0.0,0.0,29,0.00,,,0.00,,2013-01-15 02:01:00,
2013-01-14 18:11:00,41.0,11.0,30.41,SW,220,0.0,0.0,29,0.00,,,0.00,,2013-01-15 02:11:00,
2013-01-14 18:22:00,39.0,10.0,30.44,SW,220,0.0,0.0,30,0.00,,,0.00,,2013-01-15 02:22:00,
2013-01-14 18:32:00,38.0,11.0,30.44,SW,220,0.0,0.0,32,0.00,,,0.00,,2013-01-15 02:32:00,
2013-01-14 18:53:00,38.0,11.0,30.44,SW,220,0.0,0.0,33,0.00,,,0.00,,2013-01-15 02:53:00,
2013-01-14 19:02:00,37.0,12.0,30.44,SW,220,0.0,0.0,35,0.00,,,0.00,,2013-01-15 03:02:00,
2013-01-14 19:22:00,37.0,13.0,30.44,SW,220,0.0,0.0,37,0.00,,,0.00,,2013-01-15 03:22:00,
2013-01-14 19:32:00,36.0,13.0,30.44,SW,220,0.0,0.0,38,0.00,,,0.00,,2013-01-15 03:32:00,
2013-01-14 19:42:00,36.0,13.0,30.44,SW,220,0.0,0.0,38,0.00,,,0.00,,2013-01-15 03:42:00,
2013-01-14 19:52:00,36.0,13.0,30.44,SW,220,0.0,0.0,39,0.00,,,0.00,,2013-01-15 03:52:00,
2013-01-14 20:02:00,36.0,14.0,30.44,SW,220,0.0,0.0,40,0.00,,,0.00,,2013-01-15 04:02:00,
2013-01-14 20:11:00,36.0,14.0,30.44,SW,220,0.0,0.0,40,0.00,,,0.00,,2013-01-15 04:11:00,
2013-01-14 20:22:00,35.0,13.0,30.44,SW,220,0.0,0.0,40,0.00,,,0.00,,2013-01-15 04:22:00,
2013-01-14 20:32:00,35.0,14.0,30.44,SW,220,0.0,0.0,41,0.00,,,0.00,,2013-01-15 04:32:00,
2013-01-14 20:42:00,35.0,14.0,30.44,SW,220,0.0,0.0,41,0.00,,,0.00,,2013-01-15 04:42:00,
2013-01-14 20:52:00,35.0,14.0,30.44,SW,220,0.0,0.0,41,0.00,,,0.00,,2013-01-15 04:52:00,
2013-01-14 21:03:00,35.0,14.0,30.44,SW,220,0.0,0.0,42,0.00,,,0.00,,2013-01-15 05:03:00,
2013-01-14 21:12:00,34.0,13.0,30.44,SW,220,0.0,0.0,42,0.00,,,0.00,,2013-01-15 05:12:00,
2013-01-14 21:22:00,34.0,13.0,30.44,SW,220,0.0,0.0,42,0.00,,,0.00,,2013-01-15 05:22:00,
2013-01-14 21:32:00,34.0,13.0,30.41,SW,220,0.0,0.0,42,0.00,,,0.00,,2013-01-15 05:32:00,
2013-01-14 21:42:00,34.0,13.0,30.41,SW,220,0.0,0.0,42,0.00,,,0.00,,2013-01-15 05:42:00,
2013-01-14 21:52:00,33.0,13.0,30.44,SW,220,0.0,0.0,43,0.00,,,0.00,,2013-01-15 05:52:00,
2013-01-14 22:02:00,33.0,13.0,30.44,SW,220,0.0,0.0,44,0.00,,,0.00,,2013-01-15 06:02:00,
2013-01-14 22:22:00,33.0,13.0,30.44,SW,220,0.0,0.0,44,0.00,,,0.00,,2013-01-15 06:22:00,
2013-01-14 22:32:00,33.0,14.0,30.44,SW,220,0.0,0.0,45,0.00,,,0.00,,2013-01-15 06:32:00,
2013-01-14 22:42:00,33.0,14.0,30.44,SW,220,0.0,0.0,45,0.00,,,0.00,,2013-01-15 06:42:00,
2013-01-14 22:52:00,33.0,14.0,30.45,SW,220,0.0,3.0,45,0.00,,,0.00,,2013-01-15 06:52:00,
2013-01-14 23:02:00,32.0,13.0,30.45,SW,220,0.0,0.0,45,0.00,,,0.00,,2013-01-15 07:02:00,
2013-01-14 23:12:00,32.0,13.0,30.45,SW,220,0.0,0.0,45,0.00,,,0.00,,2013-01-15 07:12:00,
2013-01-14 23:22:00,32.0,14.0,30.45,SW,220,0.0,0.0,46,0.00,,,0.00,,2013-01-15 07:22:00,
2013-01-14 23:32:00,32.0,14.0,30.45,SW,220,0.0,0.0,46,0.00,,,0.00,,2013-01-15 07:32:00,
2013-01-14 23:42:00,32.0,14.0,30.45,SW,220,0.0,0.0,46,0.00,,,0.00,,2013-01-15 07:42:00,
2013-01-14 23:52:00,32.0,14.0,30.45,SW,220,0.0,0.0,47,0.00,,,0.00,,2013-01-15 07:52:00,